createdAt,value
2023-05-13T00:02:42.278Z,10.72
2023-05-13T00:05:45.817Z,10.81
2023-05-13T00:08:48.393Z,10.75
2023-05-13T00:11:50.989Z,10.84
2023-05-13T00:14:53.427Z,10.71
2023-05-13T00:17:56.469Z,10.74
2023-05-13T00:20:59.117Z,10.73
2023-05-13T00:24:01.865Z,10.69
2023-05-13T00:27:04.828Z,10.75
2023-05-13T00:30:08.220Z,10.70
2023-05-13T00:33:11.599Z,10.70
2023-05-13T00:36:14.419Z,10.69
2023-05-13T00:39:16.899Z,10.57
2023-05-13T00:42:19.551Z,10.68
2023-05-13T00:45:22.112Z,10.68
2023-05-13T00:48:25.106Z,10.72
2023-05-13T00:51:28.012Z,10.65
2023-05-13T00:54:30.671Z,10.68
2023-05-13T00:57:33.659Z,10.61
2023-05-13T01:00:43.358Z,10.57
2023-05-13T01:04:14.926Z,10.48
2023-05-13T01:07:34.996Z,10.57
2023-05-13T01:11:01.818Z,10.46
2023-05-13T01:14:12.795Z,10.51
2023-05-13T01:17:24.556Z,10.56
2023-05-13T01:20:28.364Z,10.61
2023-05-13T01:23:31.127Z,10.46
2023-05-13T01:26:34.170Z,10.50
2023-05-13T01:29:37.826Z,10.47
2023-05-13T01:32:41.354Z,10.38
2023-05-13T01:35:46.800Z,10.28
2023-05-13T01:38:52.429Z,10.28
2023-05-13T01:41:55.911Z,10.29
2023-05-13T01:44:59.066Z,10.20
2023-05-13T01:48:01.682Z,10.11
2023-05-13T01:51:13.933Z,10.11
2023-05-13T01:54:16.647Z,10.16
2023-05-13T01:57:24.074Z,10.17
2023-05-13T02:00:27.122Z,10.17
2023-05-13T02:03:30.127Z,10.21
2023-05-13T02:06:33.028Z,10.24
2023-05-13T02:09:36.148Z,10.17
2023-05-13T02:12:41.004Z,10.15
2023-05-13T02:15:44.072Z,10.28
2023-05-13T02:18:46.656Z,10.21
2023-05-13T02:21:49.675Z,10.30
2023-05-13T02:24:52.307Z,10.18
2023-05-13T02:27:55.238Z,10.31
2023-05-13T02:30:57.939Z,10.30
2023-05-13T02:34:00.395Z,10.20
2023-05-13T02:37:04.037Z,10.22
2023-05-13T02:40:07.979Z,10.19
2023-05-13T02:43:10.605Z,10.13
2023-05-13T02:46:24.001Z,10.18
2023-05-13T02:49:27.428Z,10.19
2023-05-13T02:52:30.544Z,10.15
2023-05-13T02:55:33.296Z,10.13
2023-05-13T02:58:36.454Z,10.04
2023-05-13T03:01:39.501Z,10.02
2023-05-13T03:04:42.038Z,10.10
2023-05-13T03:07:44.880Z,10.11
2023-05-13T03:10:47.857Z,10.14
2023-05-13T03:13:50.324Z,10.17
2023-05-13T03:16:53.130Z,10.10
2023-05-13T03:19:55.562Z,10.07
2023-05-13T03:22:58.837Z,10.05
2023-05-13T03:26:02.261Z,10.04
2023-05-13T03:29:06.044Z,10.17
2023-05-13T03:32:10.230Z,10.13
2023-05-13T03:35:12.619Z,10.20
2023-05-13T03:38:15.362Z,10.20
2023-05-13T03:41:22.003Z,10.32
2023-05-13T03:44:25.183Z,10.38
2023-05-13T03:47:28.153Z,10.31
2023-05-13T03:50:34.864Z,10.39
2023-05-13T03:53:37.451Z,10.39
2023-05-13T03:56:40.432Z,10.50
2023-05-13T03:59:42.870Z,10.60
2023-05-13T04:02:45.921Z,10.65
2023-05-13T04:05:49.097Z,10.71
2023-05-13T04:08:51.929Z,10.80
2023-05-13T04:11:55.065Z,10.86
2023-05-13T04:14:59.010Z,10.81
2023-05-13T04:18:01.801Z,10.91
2023-05-13T04:21:08.251Z,10.97
2023-05-13T04:24:10.974Z,11.05
2023-05-13T04:27:13.577Z,11.12
2023-05-13T04:30:16.455Z,11.14
2023-05-13T04:33:20.128Z,11.20
2023-05-13T04:36:24.490Z,11.26
2023-05-13T04:39:29.755Z,11.38
2023-05-13T04:42:32.624Z,11.32
2023-05-13T04:45:37.120Z,11.34
2023-05-13T04:48:43.002Z,11.28
2023-05-13T04:51:46.211Z,11.33
2023-05-13T04:54:50.248Z,11.47
2023-05-13T04:57:52.679Z,11.48
2023-05-13T05:00:55.646Z,11.43
2023-05-13T05:03:58.822Z,11.51
2023-05-13T05:07:01.632Z,11.60
2023-05-13T05:10:04.569Z,11.60
2023-05-13T05:13:09.399Z,11.63
2023-05-13T05:16:11.934Z,11.58
2023-05-13T05:19:15.071Z,11.70
2023-05-13T05:22:18.073Z,11.73
2023-05-13T05:25:21.815Z,11.79
2023-05-13T05:28:24.556Z,11.77
2023-05-13T05:31:27.656Z,11.86
2023-05-13T05:34:32.273Z,11.89
2023-05-13T05:37:34.853Z,12.02
2023-05-13T05:40:44.809Z,11.88
2023-05-13T05:43:47.856Z,11.98
2023-05-13T05:46:52.307Z,12.01
2023-05-13T05:49:55.037Z,12.17
2023-05-13T05:52:57.658Z,12.29
2023-05-13T05:56:00.593Z,12.21
2023-05-13T05:59:03.424Z,12.45
2023-05-13T06:02:06.512Z,12.63
2023-05-13T06:05:09.682Z,12.80
2023-05-13T06:08:14.339Z,12.83
2023-05-13T06:11:17.244Z,12.80
2023-05-13T06:14:20.291Z,12.78
2023-05-13T06:17:22.891Z,12.83
2023-05-13T06:20:25.542Z,13.02
2023-05-13T06:23:27.916Z,13.05
2023-05-13T06:26:30.721Z,13.37
2023-05-13T06:29:33.286Z,13.40
2023-05-13T06:32:36.219Z,13.69
2023-05-13T06:35:39.786Z,14.08
2023-05-13T06:38:42.978Z,13.92
2023-05-13T06:41:45.812Z,13.88
2023-05-13T06:44:51.942Z,13.70
2023-05-13T06:48:01.543Z,13.64
2023-05-13T06:51:05.276Z,13.70
2023-05-13T06:54:07.698Z,13.90
2023-05-13T06:57:10.409Z,13.92
2023-05-13T07:00:14.773Z,14.04
2023-05-13T07:03:17.941Z,14.19
2023-05-13T07:06:20.928Z,14.24
2023-05-13T07:09:23.947Z,14.31
2023-05-13T07:12:26.793Z,14.35
2023-05-13T07:15:29.725Z,14.51
2023-05-13T07:18:32.296Z,14.29
2023-05-13T07:21:35.349Z,14.38
2023-05-13T07:24:39.067Z,14.43
2023-05-13T07:27:41.734Z,14.70
2023-05-13T07:30:44.517Z,14.85
2023-05-13T07:33:47.362Z,14.33
2023-05-13T07:36:50.021Z,14.39
2023-05-13T07:39:53.577Z,14.96
2023-05-13T07:42:56.177Z,15.04
2023-05-13T07:45:58.995Z,15.25
2023-05-13T07:49:01.391Z,14.86
2023-05-13T07:52:04.544Z,15.44
2023-05-13T07:55:07.711Z,15.92
2023-05-13T07:58:10.559Z,15.94
2023-05-13T08:01:13.172Z,15.92
2023-05-13T08:04:15.793Z,16.24
2023-05-13T08:07:18.958Z,16.75
2023-05-13T08:10:21.549Z,17.17
2023-05-13T08:13:24.553Z,17.71
2023-05-13T08:16:27.481Z,18.08
2023-05-13T08:19:29.942Z,18.92
2023-05-13T08:22:32.741Z,19.64
2023-05-13T08:25:35.180Z,19.15
2023-05-13T08:28:38.125Z,18.52
2023-05-13T08:31:41.185Z,18.81
2023-05-13T08:34:43.812Z,19.48
2023-05-13T08:37:46.446Z,18.93
2023-05-13T08:40:49.009Z,18.84
2023-05-13T08:43:52.360Z,19.35
2023-05-13T08:47:32.874Z,19.34
2023-05-13T08:50:37.129Z,18.54
2023-05-13T08:53:40.956Z,18.52
2023-05-13T08:56:43.365Z,18.83
2023-05-13T08:59:46.006Z,18.86
2023-05-13T09:02:50.197Z,19.08
2023-05-13T09:05:52.970Z,19.27
2023-05-13T09:08:56.550Z,17.81
2023-05-13T09:11:59.158Z,18.56
2023-05-13T09:15:01.590Z,18.25
2023-05-13T09:18:06.645Z,18.38
2023-05-13T09:21:28.442Z,18.02
2023-05-13T09:24:30.921Z,18.37
2023-05-13T09:27:38.397Z,18.87
2023-05-13T09:30:46.838Z,18.51
2023-05-13T09:33:53.024Z,19.67
2023-05-13T09:37:06.485Z,19.02
2023-05-13T09:40:12.768Z,19.18
2023-05-13T09:43:15.582Z,18.50
2023-05-13T09:46:18.299Z,18.52
2023-05-13T09:49:26.177Z,17.87
2023-05-13T09:52:33.341Z,17.53
2023-05-13T09:55:35.921Z,17.77
2023-05-13T09:58:38.393Z,17.97
2023-05-13T10:01:41.700Z,17.89
2023-05-13T10:04:44.589Z,17.70
2023-05-13T10:07:47.128Z,17.99
2023-05-13T10:10:53.926Z,18.45
2023-05-13T10:14:01.098Z,17.94
2023-05-13T10:17:05.347Z,18.03
2023-05-13T10:20:08.744Z,17.94
2023-05-13T10:23:12.051Z,18.15
2023-05-13T10:26:15.122Z,18.14
2023-05-13T10:29:18.252Z,17.80
2023-05-13T10:32:23.911Z,17.44
2023-05-13T10:35:34.640Z,17.19
2023-05-13T10:39:13.443Z,17.39
2023-05-13T10:42:34.596Z,16.91
2023-05-13T10:45:37.166Z,16.71
2023-05-13T10:49:00.182Z,16.75
2023-05-13T10:52:07.962Z,16.39
2023-05-13T10:55:17.408Z,16.78
2023-05-13T10:58:22.503Z,16.85
2023-05-13T11:01:34.847Z,16.65
2023-05-13T11:04:58.056Z,16.90
2023-05-13T11:08:00.723Z,17.06
2023-05-13T11:11:03.329Z,17.22
2023-05-13T11:14:20.815Z,17.69
2023-05-13T11:17:23.482Z,17.58
2023-05-13T11:20:26.392Z,17.73
2023-05-13T11:23:29.126Z,18.07
2023-05-13T11:26:50.712Z,18.29
2023-05-13T11:29:55.544Z,18.39
2023-05-13T11:32:59.168Z,18.26
2023-05-13T11:36:04.823Z,18.02
2023-05-13T11:39:22.433Z,18.04
2023-05-13T11:42:25.099Z,18.08
2023-05-13T11:45:28.533Z,18.11
2023-05-13T11:48:30.935Z,17.60
2023-05-13T11:51:34.249Z,16.97
2023-05-13T11:54:43.411Z,17.34
2023-05-13T11:57:48.617Z,17.73
2023-05-13T12:00:52.793Z,17.85
2023-05-13T12:04:02.027Z,18.25
2023-05-13T12:07:04.769Z,18.42
2023-05-13T12:10:07.891Z,18.40
2023-05-13T12:13:10.784Z,18.52
2023-05-13T12:16:13.866Z,18.71
2023-05-13T12:19:16.330Z,18.34
2023-05-13T12:22:22.372Z,17.98
2023-05-13T12:25:38.095Z,17.84
2023-05-13T12:28:40.618Z,18.18
2023-05-13T12:32:03.951Z,17.87
2023-05-13T12:35:14.351Z,17.85
2023-05-13T12:38:19.465Z,18.01
2023-05-13T12:41:22.953Z,17.65
2023-05-13T12:44:26.762Z,17.12
2023-05-13T12:47:29.301Z,17.40
2023-05-13T12:50:31.874Z,17.79
2023-05-13T12:53:34.269Z,18.31
2023-05-13T12:56:36.789Z,17.23
2023-05-13T12:59:39.162Z,18.12
2023-05-13T13:02:41.935Z,17.75
2023-05-13T13:05:44.585Z,17.29
2023-05-13T13:08:47.266Z,17.26
2023-05-13T13:11:50.037Z,17.41
2023-05-13T13:14:52.835Z,17.21
2023-05-13T13:17:55.565Z,17.26
2023-05-13T13:20:58.018Z,16.89
2023-05-13T13:24:01.065Z,16.88
2023-05-13T13:27:03.675Z,16.78
2023-05-13T13:30:07.865Z,16.78
2023-05-13T13:33:12.859Z,16.49
2023-05-13T13:36:15.484Z,16.91
2023-05-13T13:39:18.041Z,17.24
2023-05-13T13:42:25.034Z,17.81
2023-05-13T13:45:31.331Z,18.36
2023-05-13T13:48:34.040Z,17.94
2023-05-13T13:51:36.468Z,18.17
2023-05-13T13:54:39.064Z,18.47
2023-05-13T13:57:41.651Z,18.61
2023-05-13T14:00:44.180Z,18.05
2023-05-13T14:03:50.200Z,18.57
2023-05-13T14:06:53.118Z,18.27
2023-05-13T14:09:55.867Z,18.09
2023-05-13T14:12:58.445Z,17.97
2023-05-13T14:16:01.096Z,18.05
2023-05-13T14:19:03.817Z,18.04
2023-05-13T14:22:06.562Z,18.34
2023-05-13T14:25:09.663Z,17.58
2023-05-13T14:28:13.312Z,17.63
2023-05-13T14:31:15.904Z,16.99
2023-05-13T14:34:18.563Z,17.34
2023-05-13T14:37:20.993Z,17.61
2023-05-13T14:40:23.827Z,17.28
2023-05-13T14:43:26.897Z,17.41
2023-05-13T14:46:29.807Z,17.68
2023-05-13T14:49:32.562Z,17.74
2023-05-13T14:52:34.990Z,18.01
2023-05-13T14:55:37.575Z,17.98
2023-05-13T14:58:41.116Z,18.09
2023-05-13T15:01:43.510Z,17.52
2023-05-13T15:04:45.994Z,17.55
2023-05-13T15:07:48.419Z,17.50
2023-05-13T15:10:51.038Z,17.61
2023-05-13T15:13:53.878Z,17.90
2023-05-13T15:16:56.690Z,17.98
2023-05-13T15:19:59.516Z,17.00
2023-05-13T15:23:01.989Z,16.99
2023-05-13T15:26:04.868Z,17.08
2023-05-13T15:29:07.448Z,17.45
2023-05-13T15:32:10.051Z,17.74
2023-05-13T15:35:12.716Z,17.38
2023-05-13T15:38:15.096Z,17.38
2023-05-13T15:41:18.088Z,17.61
2023-05-13T15:44:22.329Z,17.53
2023-05-13T15:47:24.899Z,17.27
2023-05-13T15:50:27.710Z,16.99
2023-05-13T15:53:30.131Z,16.88
2023-05-13T15:56:32.624Z,16.65
2023-05-13T15:59:35.866Z,16.61
2023-05-13T16:02:39.308Z,16.54
2023-05-13T16:05:42.099Z,16.75
2023-05-13T16:08:44.548Z,16.75
2023-05-13T16:11:47.410Z,16.83
2023-05-13T16:14:50.070Z,16.85
2023-05-13T16:17:52.836Z,16.57
2023-05-13T16:20:55.663Z,16.63
2023-05-13T16:23:58.210Z,16.35
2023-05-13T16:27:01.150Z,15.96
2023-05-13T16:30:06.609Z,16.15
2023-05-13T16:33:09.722Z,16.28
2023-05-13T16:36:12.638Z,16.32
2023-05-13T16:39:15.073Z,16.31
2023-05-13T16:42:19.392Z,16.41
2023-05-13T16:45:22.075Z,16.48
2023-05-13T16:48:25.072Z,16.50
2023-05-13T16:51:27.514Z,16.24
2023-05-13T16:54:30.183Z,16.18
2023-05-13T16:57:32.808Z,16.11
2023-05-13T17:00:35.314Z,16.02
2023-05-13T17:03:37.820Z,15.95
2023-05-13T17:06:40.399Z,15.65
2023-05-13T17:09:42.850Z,15.69
2023-05-13T17:12:45.437Z,15.63
2023-05-13T17:15:47.857Z,15.44
2023-05-13T17:18:51.374Z,15.46
2023-05-13T17:21:53.910Z,15.40
2023-05-13T17:24:56.378Z,15.22
2023-05-13T17:27:58.882Z,15.26
2023-05-13T17:31:01.720Z,15.19
2023-05-13T17:34:04.312Z,15.08
2023-05-13T17:37:06.890Z,14.99
2023-05-13T17:40:09.652Z,15.04
2023-05-13T17:43:12.177Z,14.94
2023-05-13T17:46:14.869Z,14.80
2023-05-13T17:49:17.392Z,14.74
2023-05-13T17:52:20.126Z,14.74
2023-05-13T17:55:22.611Z,14.63
2023-05-13T17:58:25.364Z,14.48
2023-05-13T18:01:28.043Z,14.41
2023-05-13T18:04:30.586Z,14.38
2023-05-13T18:07:33.589Z,14.24
2023-05-13T18:10:36.101Z,14.10
2023-05-13T18:13:38.945Z,14.13
2023-05-13T18:16:41.625Z,14.15
2023-05-13T18:19:45.359Z,14.06
2023-05-13T18:22:48.116Z,14.03
2023-05-13T18:25:55.834Z,13.94
2023-05-13T18:28:59.108Z,13.82
2023-05-13T18:32:01.966Z,13.82
2023-05-13T18:35:04.814Z,13.74
2023-05-13T18:38:07.379Z,13.53
2023-05-13T18:41:09.813Z,13.48
2023-05-13T18:44:12.610Z,13.29
2023-05-13T18:47:15.802Z,13.18
2023-05-13T18:50:18.246Z,13.08
2023-05-13T18:53:21.282Z,13.05
2023-05-13T18:56:23.872Z,12.87
2023-05-13T18:59:26.651Z,12.79
2023-05-13T19:02:29.893Z,12.62
2023-05-13T19:05:33.150Z,12.62
2023-05-13T19:08:35.639Z,12.44
2023-05-13T19:11:38.207Z,12.36
2023-05-13T19:14:41.716Z,12.19
2023-05-13T19:17:44.391Z,12.16
2023-05-13T19:20:47.351Z,12.02
2023-05-13T19:23:50.559Z,12.12
2023-05-13T19:26:53.333Z,11.88
2023-05-13T19:29:56.383Z,11.77
2023-05-13T19:32:58.756Z,11.63
2023-05-13T19:36:01.333Z,11.59
2023-05-13T19:39:03.867Z,11.46
2023-05-13T19:42:06.545Z,11.29
2023-05-13T19:45:10.602Z,11.12
2023-05-13T19:48:14.014Z,11.07
2023-05-13T19:51:16.457Z,11.14
2023-05-13T19:54:19.171Z,11.07
2023-05-13T19:57:21.828Z,10.92
2023-05-13T20:00:24.550Z,10.92
2023-05-13T20:03:27.286Z,10.86
2023-05-13T20:06:30.216Z,10.90
2023-05-13T20:09:32.626Z,10.79
2023-05-13T20:12:35.695Z,10.93
2023-05-13T20:15:38.076Z,10.81
2023-05-13T20:18:40.830Z,10.65
2023-05-13T20:21:43.496Z,10.69
2023-05-13T20:24:49.281Z,10.61
2023-05-13T20:27:51.746Z,10.57
2023-05-13T20:30:54.587Z,10.44
2023-05-13T20:33:57.639Z,10.54
2023-05-13T20:37:00.830Z,10.50
2023-05-13T20:40:04.538Z,10.40
2023-05-13T20:43:07.951Z,10.39
2023-05-13T20:46:14.845Z,10.34
2023-05-13T20:49:18.370Z,10.43
2023-05-13T20:52:21.799Z,10.34
2023-05-13T20:55:24.537Z,10.39
2023-05-13T20:58:27.038Z,10.33
2023-05-13T21:01:30.567Z,10.34
2023-05-13T21:04:33.161Z,10.09
2023-05-13T21:07:35.810Z,10.10
2023-05-13T21:10:38.394Z,10.04
2023-05-13T21:13:40.832Z,10.10
2023-05-13T21:16:43.650Z,10.08
2023-05-13T21:19:46.262Z,10.23
2023-05-13T21:22:49.132Z,10.15
2023-05-13T21:25:51.851Z,10.17
2023-05-13T21:28:54.312Z,10.26
2023-05-13T21:31:56.934Z,10.31
2023-05-13T21:34:59.450Z,10.33
2023-05-13T21:38:11.476Z,10.31
2023-05-13T21:41:15.132Z,10.33
2023-05-13T21:44:17.540Z,10.27
2023-05-13T21:47:20.132Z,10.18
2023-05-13T21:50:22.809Z,10.07
2023-05-13T21:53:25.734Z,10.01
2023-05-13T21:56:28.521Z,9.95
2023-05-13T21:59:31.151Z,10.01
2023-05-13T22:02:33.714Z,9.95
2023-05-13T22:05:42.291Z,9.87
2023-05-13T22:08:45.030Z,9.90
2023-05-13T22:11:47.744Z,9.92
2023-05-13T22:14:50.130Z,9.83
2023-05-13T22:17:52.911Z,9.75
2023-05-13T22:20:55.823Z,9.59
2023-05-13T22:23:58.497Z,9.58
2023-05-13T22:27:01.261Z,9.44
2023-05-13T22:30:04.095Z,9.35
2023-05-13T22:33:07.022Z,9.36
2023-05-13T22:36:10.117Z,9.18
2023-05-13T22:39:13.468Z,9.19
2023-05-13T22:42:16.174Z,9.26
2023-05-13T22:45:18.667Z,9.13
2023-05-13T22:48:21.289Z,9.11
2023-05-13T22:51:24.128Z,9.03
2023-05-13T22:54:26.612Z,8.88
2023-05-13T22:57:29.379Z,8.95
2023-05-13T23:00:31.987Z,9.03
2023-05-13T23:03:34.829Z,8.94
2023-05-13T23:06:37.626Z,8.79
2023-05-13T23:09:40.020Z,8.74
2023-05-13T23:12:42.580Z,8.71
2023-05-13T23:15:45.084Z,8.63
2023-05-13T23:18:47.823Z,8.63
2023-05-13T23:21:50.364Z,8.50
2023-05-13T23:24:53.167Z,8.37
2023-05-13T23:27:55.865Z,8.35
2023-05-13T23:30:58.273Z,8.27
2023-05-13T23:34:01.005Z,8.34
2023-05-13T23:37:03.735Z,8.39
2023-05-13T23:40:07.038Z,8.33
2023-05-13T23:43:09.714Z,8.32
2023-05-13T23:46:12.408Z,8.36
2023-05-13T23:49:15.139Z,8.44
2023-05-13T23:52:18.176Z,8.48
2023-05-13T23:55:20.896Z,8.44
2023-05-13T23:58:23.690Z,8.45
